KAL221T LFBO-LFPG
Flight info
| Callsign | KAL221T |
|---|---|
| Flight time | 1h 0m |
| Altitude | 30000 |
| Route | FISTO DCT POI DCT PEPAX UT182 KEPER |
| Aircraft | A388/J-SADE2E3FGHIJ3J4J5M1RWXY/LB1D1 |
Departure
| Time | 2026-05-07 22:26 |
|---|---|
| Airport | Toulouse-Blagnac Airport (LFBO) |
Arrival
| Time | 2026-05-07 23:26 |
|---|---|
| Airport | Charles de Gaulle International Airport (LFPG) |
| Time | Latitude | Longitude | Altitude | Speed | Heading |
|---|---|---|---|---|---|
| 2026-05-07 22:10 | 43.63433 | 1.34967 | 499 ft | 0 kts | 233° |
| 2026-05-07 22:10 | 43.63441 | 1.34981 | 499 ft | 3 kts | 233° |
| 2026-05-07 22:10 | 43.63452 | 1.35003 | 499 ft | 3 kts | 233° |
| 2026-05-07 22:11 | 43.63463 | 1.35023 | 499 ft | 3 kts | 230° |
| 2026-05-07 22:11 | 43.63476 | 1.35039 | 499 ft | 3 kts | 199° |
| 2026-05-07 22:11 | 43.63494 | 1.35042 | 499 ft | 3 kts | 162° |
| 2026-05-07 22:11 | 43.63508 | 1.35033 | 499 ft | 1 kts | 143° |
| 2026-05-07 22:12 | 43.63519 | 1.35022 | 499 ft | 3 kts | 143° |
| 2026-05-07 22:12 | 43.63535 | 1.35006 | 499 ft | 2 kts | 143° |
| 2026-05-07 22:12 | 43.63539 | 1.35001 | 499 ft | 0 kts | 143° |
| 2026-05-07 22:18 | 43.63491 | 1.35051 | 499 ft | 10 kts | 143° |
| 2026-05-07 22:18 | 43.63432 | 1.35112 | 499 ft | 10 kts | 143° |
| 2026-05-07 22:19 | 43.63367 | 1.35178 | 499 ft | 14 kts | 143° |
| 2026-05-07 22:19 | 43.63280 | 1.35269 | 499 ft | 17 kts | 143° |
| 2026-05-07 22:19 | 43.63188 | 1.35364 | 499 ft | 17 kts | 143° |
| 2026-05-07 22:19 | 43.63110 | 1.35444 | 499 ft | 12 kts | 148° |
| 2026-05-07 22:20 | 43.63022 | 1.35483 | 499 ft | 12 kts | 171° |
| 2026-05-07 22:20 | 43.62977 | 1.35509 | 499 ft | 7 kts | 126° |
| 2026-05-07 22:20 | 43.62970 | 1.35591 | 499 ft | 11 kts | 82° |
| 2026-05-07 22:20 | 43.62976 | 1.35715 | 499 ft | 15 kts | 89° |
| 2026-05-07 22:21 | 43.62936 | 1.35816 | 499 ft | 14 kts | 142° |
| 2026-05-07 22:21 | 43.62847 | 1.35910 | 499 ft | 18 kts | 143° |
| 2026-05-07 22:21 | 43.62740 | 1.36022 | 499 ft | 21 kts | 142° |
| 2026-05-07 22:21 | 43.62620 | 1.36146 | 499 ft | 22 kts | 143° |
| 2026-05-07 22:22 | 43.62493 | 1.36276 | 499 ft | 23 kts | 143° |
| 2026-05-07 22:22 | 43.62362 | 1.36414 | 499 ft | 24 kts | 142° |
| 2026-05-07 22:22 | 43.62229 | 1.36553 | 499 ft | 24 kts | 144° |
| 2026-05-07 22:22 | 43.62096 | 1.36690 | 499 ft | 23 kts | 141° |
| 2026-05-07 22:23 | 43.61980 | 1.36811 | 499 ft | 18 kts | 143° |
| 2026-05-07 22:23 | 43.61882 | 1.36912 | 499 ft | 19 kts | 144° |
| 2026-05-07 22:23 | 43.61827 | 1.36993 | 499 ft | 4 kts | 105° |
| 2026-05-07 22:23 | 43.61827 | 1.37037 | 499 ft | 7 kts | 68° |
| 2026-05-07 22:24 | 43.61860 | 1.37112 | 499 ft | 11 kts | 54° |
| 2026-05-07 22:24 | 43.61908 | 1.37169 | 499 ft | 8 kts | 9° |
| 2026-05-07 22:24 | 43.61953 | 1.37151 | 499 ft | 2 kts | 323° |
| 2026-05-07 22:25 | 43.62049 | 1.37051 | 499 ft | 58 kts | 322° |
| 2026-05-07 22:25 | 43.62609 | 1.36471 | 499 ft | 137 kts | 323° |
| 2026-05-07 22:25 | 43.63482 | 1.35548 | 674 ft | 168 kts | 322° |
| 2026-05-07 22:26 | 43.64415 | 1.34538 | 1199 ft | 173 kts | 323° |
| 2026-05-07 22:26 | 43.65396 | 1.33524 | 1738 ft | 179 kts | 325° |
| 2026-05-07 22:26 | 43.66404 | 1.32512 | 2271 ft | 185 kts | 325° |
| 2026-05-07 22:26 | 43.67483 | 1.31418 | 2543 ft | 203 kts | 324° |
| 2026-05-07 22:27 | 43.68689 | 1.30163 | 3029 ft | 228 kts | 323° |
| 2026-05-07 22:27 | 43.70017 | 1.28771 | 3582 ft | 252 kts | 322° |
| 2026-05-07 22:27 | 43.71503 | 1.27327 | 4254 ft | 270 kts | 330° |
| 2026-05-07 22:27 | 43.73263 | 1.26328 | 5224 ft | 276 kts | 344° |
| 2026-05-07 22:28 | 43.75133 | 1.25744 | 6292 ft | 276 kts | 347° |
| 2026-05-07 22:28 | 43.77007 | 1.25184 | 7303 ft | 278 kts | 351° |
| 2026-05-07 22:28 | 43.78949 | 1.25004 | 8248 ft | 282 kts | 359° |
| 2026-05-07 22:28 | 43.80887 | 1.24964 | 9195 ft | 286 kts | 358° |
| 2026-05-07 22:29 | 43.82932 | 1.24900 | 10171 ft | 290 kts | 358° |
| 2026-05-07 22:29 | 43.84984 | 1.24827 | 10653 ft | 310 kts | 357° |
| 2026-05-07 22:29 | 43.87219 | 1.24745 | 10936 ft | 333 kts | 357° |
| 2026-05-07 22:29 | 43.89581 | 1.24661 | 11511 ft | 343 kts | 357° |
| 2026-05-07 22:30 | 43.91975 | 1.24579 | 12314 ft | 346 kts | 357° |
| 2026-05-07 22:30 | 43.94399 | 1.24498 | 13113 ft | 350 kts | 357° |
| 2026-05-07 22:30 | 43.96851 | 1.24415 | 13904 ft | 354 kts | 357° |
| 2026-05-07 22:30 | 43.99332 | 1.24331 | 14587 ft | 359 kts | 357° |
| 2026-05-07 22:31 | 44.01848 | 1.24244 | 15261 ft | 364 kts | 357° |
| 2026-05-07 22:31 | 44.04397 | 1.24158 | 15912 ft | 369 kts | 357° |
| 2026-05-07 22:31 | 44.06980 | 1.24070 | 16575 ft | 374 kts | 357° |
| 2026-05-07 22:31 | 44.09601 | 1.23980 | 17228 ft | 379 kts | 357° |
| 2026-05-07 22:32 | 44.12215 | 1.23890 | 17851 ft | 384 kts | 357° |
| 2026-05-07 22:32 | 44.14903 | 1.23797 | 18457 ft | 388 kts | 357° |
| 2026-05-07 22:32 | 44.17614 | 1.23705 | 19034 ft | 392 kts | 357° |
| 2026-05-07 22:32 | 44.20349 | 1.23611 | 19599 ft | 395 kts | 357° |
| 2026-05-07 22:33 | 44.23112 | 1.23517 | 20156 ft | 399 kts | 356° |
| 2026-05-07 22:33 | 44.25898 | 1.23422 | 20714 ft | 403 kts | 356° |
| 2026-05-07 22:33 | 44.28712 | 1.23325 | 21248 ft | 406 kts | 356° |
| 2026-05-07 22:33 | 44.31550 | 1.23226 | 21800 ft | 410 kts | 356° |
| 2026-05-07 22:34 | 44.34409 | 1.23127 | 22321 ft | 413 kts | 356° |
| 2026-05-07 22:34 | 44.37261 | 1.23028 | 22852 ft | 417 kts | 356° |
| 2026-05-07 22:34 | 44.40169 | 1.22928 | 23374 ft | 420 kts | 356° |
| 2026-05-07 22:34 | 44.43109 | 1.22826 | 23871 ft | 423 kts | 355° |
| 2026-05-07 22:35 | 44.46034 | 1.22472 | 24368 ft | 422 kts | 348° |
| 2026-05-07 22:35 | 44.48899 | 1.21577 | 24806 ft | 423 kts | 340° |
| 2026-05-07 22:35 | 44.51716 | 1.20352 | 25273 ft | 425 kts | 340° |
| 2026-05-07 22:35 | 44.54558 | 1.19145 | 25764 ft | 428 kts | 340° |
| 2026-05-07 22:36 | 44.57419 | 1.17943 | 26267 ft | 432 kts | 340° |
| 2026-05-07 22:36 | 44.60312 | 1.16727 | 26805 ft | 435 kts | 340° |
| 2026-05-07 22:36 | 44.63217 | 1.15501 | 27383 ft | 437 kts | 340° |
| 2026-05-07 22:36 | 44.66136 | 1.14266 | 27964 ft | 440 kts | 340° |
| 2026-05-07 22:37 | 44.69041 | 1.13033 | 28535 ft | 443 kts | 340° |
| 2026-05-07 22:37 | 44.72004 | 1.11774 | 29113 ft | 446 kts | 340° |
| 2026-05-07 22:37 | 44.74984 | 1.10504 | 29675 ft | 450 kts | 340° |
| 2026-05-07 22:37 | 44.77993 | 1.09222 | 30221 ft | 453 kts | 340° |
| 2026-05-07 22:38 | 44.81026 | 1.07928 | 30686 ft | 458 kts | 340° |
| 2026-05-07 22:38 | 44.84089 | 1.06621 | 31121 ft | 462 kts | 340° |
| 2026-05-07 22:38 | 44.87180 | 1.05299 | 31565 ft | 467 kts | 340° |
| 2026-05-07 22:38 | 44.90304 | 1.03962 | 32013 ft | 471 kts | 340° |
| 2026-05-07 22:39 | 44.93449 | 1.02614 | 32453 ft | 475 kts | 341° |
| 2026-05-07 22:39 | 44.96587 | 1.01269 | 32865 ft | 480 kts | 341° |
| 2026-05-07 22:39 | 44.99792 | 0.99892 | 33317 ft | 484 kts | 341° |
| 2026-05-07 22:39 | 45.03035 | 0.98498 | 33679 ft | 490 kts | 341° |
| 2026-05-07 22:40 | 45.06311 | 0.97087 | 33989 ft | 496 kts | 341° |
| 2026-05-07 22:40 | 45.12991 | 0.94207 | 33980 ft | 501 kts | 341° |
| 2026-05-07 22:41 | 45.19679 | 0.91318 | 33975 ft | 503 kts | 341° |
| 2026-05-07 22:41 | 45.26304 | 0.88447 | 33967 ft | 505 kts | 341° |
| 2026-05-07 22:42 | 45.32980 | 0.85547 | 33969 ft | 505 kts | 341° |
| 2026-05-07 22:42 | 45.39697 | 0.82622 | 33976 ft | 505 kts | 341° |
| 2026-05-07 22:43 | 45.46418 | 0.79687 | 33977 ft | 505 kts | 340° |
| 2026-05-07 22:43 | 45.53140 | 0.76745 | 33990 ft | 505 kts | 341° |
| 2026-05-07 22:44 | 45.59817 | 0.73815 | 33987 ft | 505 kts | 341° |
| 2026-05-07 22:44 | 45.66360 | 0.70938 | 33991 ft | 505 kts | 341° |
| 2026-05-07 22:45 | 45.73083 | 0.67973 | 33989 ft | 505 kts | 341° |
| 2026-05-07 22:45 | 45.79801 | 0.65004 | 33985 ft | 505 kts | 341° |
| 2026-05-07 22:46 | 45.86524 | 0.62024 | 33982 ft | 505 kts | 341° |
| 2026-05-07 22:46 | 45.93195 | 0.59060 | 33984 ft | 506 kts | 341° |
| 2026-05-07 22:47 | 45.99913 | 0.56067 | 33977 ft | 506 kts | 340° |
| 2026-05-07 22:47 | 46.06632 | 0.53067 | 33982 ft | 506 kts | 340° |
| 2026-05-07 22:48 | 46.13352 | 0.50058 | 33991 ft | 505 kts | 340° |
| 2026-05-07 22:48 | 46.20064 | 0.47045 | 33991 ft | 505 kts | 340° |
| 2026-05-07 22:49 | 46.26735 | 0.44044 | 33994 ft | 505 kts | 340° |
| 2026-05-07 22:49 | 46.33444 | 0.41017 | 33994 ft | 505 kts | 340° |
| 2026-05-07 22:50 | 46.40156 | 0.37981 | 33988 ft | 505 kts | 340° |
| 2026-05-07 22:50 | 46.45581 | 0.35521 | 33991 ft | 505 kts | 340° |
| 2026-05-07 22:51 | 46.52291 | 0.32473 | 33990 ft | 505 kts | 340° |
| 2026-05-07 22:51 | 46.59200 | 0.30902 | 33990 ft | 511 kts | 359° |
| 2026-05-07 22:52 | 46.66244 | 0.32337 | 33984 ft | 513 kts | 11° |
| 2026-05-07 22:52 | 46.73228 | 0.34470 | 33989 ft | 513 kts | 11° |
| 2026-05-07 22:53 | 46.80215 | 0.36601 | 33991 ft | 513 kts | 11° |
| 2026-05-07 22:53 | 46.87204 | 0.38752 | 33997 ft | 513 kts | 11° |
| 2026-05-07 22:54 | 46.94200 | 0.40916 | 33993 ft | 513 kts | 11° |
| 2026-05-07 22:54 | 47.01137 | 0.43067 | 34013 ft | 514 kts | 11° |
| 2026-05-07 22:55 | 47.08180 | 0.44422 | 34018 ft | 511 kts | 359° |
| 2026-05-07 22:55 | 47.15240 | 0.43484 | 34030 ft | 507 kts | 348° |
| 2026-05-07 22:56 | 47.22213 | 0.41795 | 34015 ft | 508 kts | 348° |
| 2026-05-07 22:56 | 47.29175 | 0.40126 | 34027 ft | 508 kts | 348° |
| 2026-05-07 22:57 | 47.36092 | 0.38439 | 33995 ft | 506 kts | 348° |
| 2026-05-07 22:57 | 47.39581 | 0.37584 | 33429 ft | 503 kts | 348° |
| 2026-05-07 22:57 | 47.43036 | 0.36735 | 32419 ft | 504 kts | 348° |
| 2026-05-07 22:57 | 47.46491 | 0.35884 | 31598 ft | 501 kts | 348° |
| 2026-05-07 22:58 | 47.49906 | 0.35043 | 30879 ft | 495 kts | 348° |
| 2026-05-07 22:58 | 47.53278 | 0.34208 | 30182 ft | 488 kts | 348° |
| 2026-05-07 22:58 | 47.56611 | 0.33381 | 29397 ft | 482 kts | 348° |
| 2026-05-07 22:58 | 47.59895 | 0.32565 | 28632 ft | 476 kts | 348° |
| 2026-05-07 22:59 | 47.63146 | 0.31756 | 27854 ft | 471 kts | 348° |
| 2026-05-07 22:59 | 47.66318 | 0.30966 | 27119 ft | 465 kts | 348° |
| 2026-05-07 22:59 | 47.69492 | 0.30175 | 26381 ft | 460 kts | 348° |
| 2026-05-07 22:59 | 47.72630 | 0.29392 | 25662 ft | 455 kts | 348° |
| 2026-05-07 23:00 | 47.75734 | 0.28616 | 24960 ft | 450 kts | 348° |
| 2026-05-07 23:00 | 47.78835 | 0.28166 | 24240 ft | 448 kts | 359° |
| 2026-05-07 23:00 | 47.81903 | 0.28749 | 23737 ft | 442 kts | 13° |
| 2026-05-07 23:00 | 47.84725 | 0.30378 | 23440 ft | 430 kts | 28° |
| 2026-05-07 23:01 | 47.87148 | 0.32887 | 23177 ft | 420 kts | 39° |
| 2026-05-07 23:01 | 47.89360 | 0.35703 | 22879 ft | 418 kts | 40° |
| 2026-05-07 23:01 | 47.91587 | 0.38471 | 22543 ft | 416 kts | 38° |
| 2026-05-07 23:01 | 47.93852 | 0.41096 | 22220 ft | 407 kts | 37° |
| 2026-05-07 23:02 | 47.96081 | 0.43541 | 21909 ft | 400 kts | 36° |
| 2026-05-07 23:02 | 47.98340 | 0.45945 | 21605 ft | 399 kts | 35° |
| 2026-05-07 23:02 | 48.00605 | 0.48326 | 21298 ft | 397 kts | 35° |
| 2026-05-07 23:02 | 48.02855 | 0.50686 | 20982 ft | 395 kts | 35° |
| 2026-05-07 23:03 | 48.05102 | 0.53046 | 20677 ft | 393 kts | 35° |
| 2026-05-07 23:03 | 48.07337 | 0.55399 | 20377 ft | 391 kts | 35° |
| 2026-05-07 23:03 | 48.09550 | 0.57732 | 20060 ft | 389 kts | 35° |
| 2026-05-07 23:03 | 48.11756 | 0.60061 | 19765 ft | 387 kts | 35° |
| 2026-05-07 23:04 | 48.13948 | 0.62379 | 19465 ft | 385 kts | 35° |
| 2026-05-07 23:04 | 48.16130 | 0.64689 | 19176 ft | 383 kts | 36° |
| 2026-05-07 23:04 | 48.18274 | 0.66961 | 18874 ft | 381 kts | 36° |
| 2026-05-07 23:04 | 48.20432 | 0.69250 | 18590 ft | 379 kts | 36° |
| 2026-05-07 23:05 | 48.22582 | 0.71532 | 18285 ft | 377 kts | 36° |
| 2026-05-07 23:05 | 48.24722 | 0.73807 | 17967 ft | 376 kts | 36° |
| 2026-05-07 23:05 | 48.26849 | 0.76070 | 17675 ft | 374 kts | 36° |
| 2026-05-07 23:05 | 48.28968 | 0.78327 | 17387 ft | 373 kts | 36° |
| 2026-05-07 23:06 | 48.31077 | 0.80576 | 17102 ft | 371 kts | 36° |
| 2026-05-07 23:06 | 48.33151 | 0.82876 | 16806 ft | 369 kts | 41° |
| 2026-05-07 23:06 | 48.34911 | 0.85657 | 16512 ft | 367 kts | 54° |
| 2026-05-07 23:06 | 48.36244 | 0.88892 | 16244 ft | 363 kts | 64° |
| 2026-05-07 23:07 | 48.37371 | 0.92225 | 15967 ft | 362 kts | 64° |
| 2026-05-07 23:07 | 48.38533 | 0.95583 | 15687 ft | 360 kts | 64° |
| 2026-05-07 23:07 | 48.39691 | 0.98911 | 15391 ft | 359 kts | 64° |
| 2026-05-07 23:07 | 48.40844 | 1.02230 | 15129 ft | 357 kts | 64° |
| 2026-05-07 23:08 | 48.41989 | 1.05536 | 14990 ft | 356 kts | 64° |
| 2026-05-07 23:08 | 48.43131 | 1.08846 | 14518 ft | 358 kts | 64° |
| 2026-05-07 23:08 | 48.44274 | 1.12167 | 14051 ft | 355 kts | 64° |
| 2026-05-07 23:08 | 48.45399 | 1.15440 | 13786 ft | 351 kts | 64° |
| 2026-05-07 23:09 | 48.46502 | 1.18653 | 13670 ft | 340 kts | 64° |
| 2026-05-07 23:09 | 48.47564 | 1.21748 | 13543 ft | 326 kts | 64° |
| 2026-05-07 23:09 | 48.48569 | 1.24683 | 13401 ft | 314 kts | 64° |
| 2026-05-07 23:09 | 48.49574 | 1.27624 | 13029 ft | 310 kts | 64° |
| 2026-05-07 23:10 | 48.50543 | 1.30464 | 12622 ft | 308 kts | 64° |
| 2026-05-07 23:10 | 48.51521 | 1.33336 | 12190 ft | 307 kts | 63° |
| 2026-05-07 23:10 | 48.52497 | 1.36187 | 11802 ft | 305 kts | 63° |
| 2026-05-07 23:10 | 48.53472 | 1.39023 | 11498 ft | 303 kts | 63° |
| 2026-05-07 23:11 | 48.54444 | 1.41851 | 11330 ft | 303 kts | 63° |
| 2026-05-07 23:11 | 48.55411 | 1.44668 | 11098 ft | 302 kts | 63° |
| 2026-05-07 23:11 | 48.56375 | 1.47484 | 10867 ft | 301 kts | 62° |
| 2026-05-07 23:11 | 48.57540 | 1.50086 | 10662 ft | 300 kts | 45° |
| 2026-05-07 23:12 | 48.59202 | 1.51923 | 10435 ft | 295 kts | 25° |
| 2026-05-07 23:12 | 48.61030 | 1.53221 | 10218 ft | 294 kts | 26° |
| 2026-05-07 23:12 | 48.62636 | 1.55127 | 9982 ft | 296 kts | 46° |
| 2026-05-07 23:12 | 48.64015 | 1.57428 | 9714 ft | 294 kts | 46° |
| 2026-05-07 23:13 | 48.65394 | 1.59723 | 9438 ft | 294 kts | 46° |
| 2026-05-07 23:13 | 48.66763 | 1.62002 | 9185 ft | 292 kts | 46° |
| 2026-05-07 23:13 | 48.68121 | 1.64263 | 9064 ft | 289 kts | 46° |
| 2026-05-07 23:13 | 48.69477 | 1.66521 | 9077 ft | 290 kts | 46° |
| 2026-05-07 23:14 | 48.70835 | 1.68784 | 8912 ft | 292 kts | 46° |
| 2026-05-07 23:14 | 48.72195 | 1.71050 | 8661 ft | 289 kts | 46° |
| 2026-05-07 23:14 | 48.73522 | 1.73261 | 8403 ft | 287 kts | 46° |
| 2026-05-07 23:14 | 48.74859 | 1.75490 | 8147 ft | 286 kts | 46° |
| 2026-05-07 23:15 | 48.76189 | 1.77717 | 7892 ft | 284 kts | 46° |
| 2026-05-07 23:15 | 48.77509 | 1.79930 | 7632 ft | 282 kts | 46° |
| 2026-05-07 23:15 | 48.78820 | 1.82131 | 7388 ft | 280 kts | 46° |
| 2026-05-07 23:15 | 48.80126 | 1.84321 | 7135 ft | 279 kts | 46° |
| 2026-05-07 23:16 | 48.81420 | 1.86491 | 6883 ft | 277 kts | 46° |
| 2026-05-07 23:16 | 48.82705 | 1.88646 | 6626 ft | 274 kts | 46° |
| 2026-05-07 23:16 | 48.83979 | 1.90785 | 6384 ft | 272 kts | 46° |
| 2026-05-07 23:16 | 48.85246 | 1.92911 | 6117 ft | 271 kts | 46° |
| 2026-05-07 23:17 | 48.86499 | 1.95009 | 5849 ft | 266 kts | 46° |
| 2026-05-07 23:17 | 48.87702 | 1.97017 | 5626 ft | 254 kts | 46° |
| 2026-05-07 23:17 | 48.88866 | 1.98958 | 5350 ft | 245 kts | 46° |
| 2026-05-07 23:17 | 48.89998 | 2.00842 | 5095 ft | 238 kts | 46° |
| 2026-05-07 23:18 | 48.91063 | 2.02732 | 4978 ft | 233 kts | 51° |
| 2026-05-07 23:18 | 48.92051 | 2.04688 | 4983 ft | 234 kts | 52° |
| 2026-05-07 23:18 | 48.93041 | 2.06648 | 4982 ft | 234 kts | 52° |
| 2026-05-07 23:18 | 48.94027 | 2.08600 | 4979 ft | 229 kts | 52° |
| 2026-05-07 23:19 | 48.94962 | 2.10454 | 4976 ft | 213 kts | 52° |
| 2026-05-07 23:19 | 48.95544 | 2.11611 | 4982 ft | 202 kts | 52° |
| 2026-05-07 23:19 | 48.96374 | 2.13304 | 4986 ft | 200 kts | 56° |
| 2026-05-07 23:19 | 48.96939 | 2.15243 | 4980 ft | 203 kts | 73° |
| 2026-05-07 23:20 | 48.97234 | 2.18054 | 4982 ft | 203 kts | 84° |
| 2026-05-07 23:20 | 48.97340 | 2.20169 | 4993 ft | 193 kts | 85° |
| 2026-05-07 23:20 | 48.97447 | 2.22141 | 4856 ft | 184 kts | 84° |
| 2026-05-07 23:20 | 48.97550 | 2.24059 | 4601 ft | 180 kts | 85° |
| 2026-05-07 23:21 | 48.97609 | 2.25340 | 4428 ft | 179 kts | 85° |
| 2026-05-07 23:21 | 48.97693 | 2.27197 | 4181 ft | 178 kts | 85° |
| 2026-05-07 23:21 | 48.97799 | 2.29071 | 3924 ft | 177 kts | 84° |
| 2026-05-07 23:21 | 48.97917 | 2.30932 | 3691 ft | 176 kts | 84° |
| 2026-05-07 23:22 | 48.98018 | 2.32777 | 3455 ft | 175 kts | 85° |
| 2026-05-07 23:22 | 48.98112 | 2.34610 | 3258 ft | 174 kts | 85° |
| 2026-05-07 23:22 | 48.98208 | 2.36441 | 3020 ft | 173 kts | 86° |
| 2026-05-07 23:22 | 48.98300 | 2.38246 | 2795 ft | 165 kts | 86° |
| 2026-05-07 23:23 | 48.98393 | 2.39863 | 2549 ft | 143 kts | 85° |
| 2026-05-07 23:23 | 48.98473 | 2.41324 | 2318 ft | 135 kts | 86° |
| 2026-05-07 23:23 | 48.98550 | 2.42733 | 2133 ft | 133 kts | 86° |
| 2026-05-07 23:23 | 48.98622 | 2.44135 | 1973 ft | 132 kts | 86° |
| 2026-05-07 23:24 | 48.98696 | 2.45505 | 1811 ft | 132 kts | 86° |
| 2026-05-07 23:24 | 48.98775 | 2.46894 | 1643 ft | 132 kts | 86° |
| 2026-05-07 23:24 | 48.98848 | 2.48283 | 1467 ft | 131 kts | 86° |
| 2026-05-07 23:24 | 48.98924 | 2.49670 | 1280 ft | 131 kts | 86° |
| 2026-05-07 23:25 | 48.98997 | 2.51048 | 1075 ft | 131 kts | 86° |
| 2026-05-07 23:25 | 48.99066 | 2.52427 | 890 ft | 131 kts | 85° |
| 2026-05-07 23:25 | 48.99147 | 2.53797 | 717 ft | 129 kts | 84° |
| 2026-05-07 23:25 | 48.99218 | 2.55161 | 557 ft | 129 kts | 84° |
| 2026-05-07 23:26 | 48.99289 | 2.56516 | 393 ft | 128 kts | 84° |
| 2026-05-07 23:26 | 48.99355 | 2.57734 | 365 ft | 97 kts | 85° |
| 2026-05-07 23:26 | 48.99393 | 2.58460 | 358 ft | 43 kts | 85° |
| 2026-05-07 23:26 | 48.99413 | 2.58861 | 364 ft | 34 kts | 86° |
| 2026-05-07 23:27 | 48.99512 | 2.59401 | 364 ft | 18 kts | 64° |
| 2026-05-07 23:27 | 48.99566 | 2.59575 | 364 ft | 15 kts | 65° |
| 2026-05-07 23:27 | 48.99621 | 2.59679 | 368 ft | 13 kts | 22° |
| 2026-05-07 23:28 | 48.99724 | 2.59685 | 361 ft | 17 kts | 357° |
| 2026-05-07 23:28 | 48.99855 | 2.59669 | 359 ft | 20 kts | 354° |
| 2026-05-07 23:28 | 48.99972 | 2.59653 | 363 ft | 14 kts | 354° |
| 2026-05-07 23:28 | 49.00055 | 2.59626 | 364 ft | 11 kts | 319° |
| 2026-05-07 23:29 | 49.00075 | 2.59499 | 363 ft | 15 kts | 265° |
| 2026-05-07 23:29 | 49.00064 | 2.59311 | 365 ft | 20 kts | 264° |
| 2026-05-07 23:29 | 49.00054 | 2.59117 | 365 ft | 16 kts | 266° |
| 2026-05-07 23:29 | 49.00059 | 2.58947 | 365 ft | 13 kts | 298° |
| 2026-05-07 23:30 | 49.00136 | 2.58890 | 365 ft | 15 kts | 355° |
| 2026-05-07 23:30 | 49.00209 | 2.58881 | 359 ft | 9 kts | 355° |
| 2026-05-07 23:30 | 49.00247 | 2.58886 | 364 ft | 4 kts | 36° |
| 2026-05-07 23:30 | 49.00260 | 2.58927 | 365 ft | 6 kts | 87° |
| 2026-05-07 23:31 | 49.00263 | 2.58989 | 367 ft | 1 kts | 85° |
| 2026-05-07 23:31 | 49.00263 | 2.58992 | 367 ft | 0 kts | 85° |